Terminal Aerodrome Forecast
Issued by NWS Tulsa, OK

Home | Current Version | Previous Version | Text Only | Print | Product List | Glossary On
Versions: 1 2 3 4 5 6 7 8 9 10 11 12 13
000
FTUS44 KTSA 221120
TAFTUL
TAF
KTUL 221120Z 2212/2312 20010KT P6SM SCT110
     FM221500 19012G17KT P6SM SCT080
     FM230200 18008KT P6SM SKC=

USA.gov is the U.S. government's official web portal to all federal, state and local government web resources and services.